LiveATC.Net - Listen to live air traffic control over the Internet! Contact for advertising information

ICAO: KBMG  IATA: BMG   Airport: Monroe County Airport
City: Bloomington   State/Province: Indiana
Country: United States   Continent: North America
KBMG METAR Weather: KBMG 301753Z 12007KT 9SM OVC009 07/05 A3004 RMK AO2 SLP174 T00720050 10078 20039 58014
KBMG Flight Activity (FlightAware)
KBMG Airport Info   (AirNav) (iFlightPlanner)
KBMG VFR Sectional Chart   (iFlightPlanner) 
KBMG IFR Low Chart   (iFlightPlanner) 
KBMG Ground/Tower
Feed Status: UP   Listeners: 3
Listen right in your browser - requires Flash (in browser, requires Flash)
Click here to listen with your own player (launches your MP3 player)
KBMG Ground/Tower Audio Archives
Bloomington Ground121.900
Bloomington Tower120.775


Unauthorized use prohibited. See Terms of Service

Find LiveATC Audio Streams

Airport/ARTCC Code

(e.g., 124.400, 128.75)
Site-wide search

Browse LiveATC Feeds
LiveATC Coverage Map
Top 50 LiveATC Feeds
Bad Weather Areas

Offer a LiveATC Feed
Press Inquiries

LiveATC on iPhone
LiveATC on Android

Windows Phone
Windows 8/10

LiveATC Mobile
(Mobile browser)

ATC Audio Archives
Interesting Recordings

LiveATC Forums

Home Page
Make a Donation
LiveATC Bookstore

Terms of Use
Privacy Policy

ATC/Radar Sites
U.S. ARTCC Freqs
Canadian Air Freqs


FAA Airport Status
Nat'l Airspace Status
Arrival Demand Charts

Server Software By:

Please make a donation to help us keep growing!